x

Buoy I01 - Eastern Maine Shelf (44034) Wave Buoy

5:04 - Thu 27th Jul 2017 All times are EDT. -4 hours from GMT.

  • Sig Wave height 3.3ft
  • Peak Period 5s
  • Wind
    13mph, 18mph gusts
  • Sea Temp 53°f
  • Ar Temp 58°f
  • Sea Pressure 1010.5mb
  • Buoy I01 - Eastern Maine Shelf
  • Buoy I01 - Eastern Maine Shelf

More Historic Weather Station data

Upgrade to MSW Pro to gain access to the past 30 days of data for over 8000 Wavebouys and Weather Stations around the globe.

Join Pro

Comparision Forecast

View Surf forecast
   
Qui 07/27 5:04 3.5ft 5s 13 18 mph 1010.5mb 53f 58f
4:04 4ft 5s 13 16 mph 1011mb 53f 58f
3:04 3ft 5s 13 16 mph 1011.4mb 53f 58f
2:04 3ft 4s 16 18 mph 1011.9mb 53f 58f
1:04 3.5ft 4s 16 18 mph 1012.6mb 53f 57f
12:04 2.5ft 4s 11 13 mph 1013.2mb 53f 57f
11:04 2.5ft 6s 11 13 mph 1014mb 53f 57f
10:04 2.5ft 8s 9 11 mph 1014.6mb 53f 56f
9:04 1.6ft 3s 11 11 mph 1015.2mb 53f 56f
8:04 2.5ft 8s 11 11 mph 1015.6mb 53f 57f
7:04 0.7ft  -  11 11 mph 1015.7mb 52f 57f
6:04 2ft 6s 9 11 mph 1015.8mb 52f 56f
5:04 2ft 6s 9 11 mph 1016.1mb 52f 56f
4:04 1.6ft 6s 7 9 mph 1016.4mb 52f 55f
3:04 2ft 8s 7 7 mph 1016.6mb 52f 55f
2:04 1.6ft 8s 9 11 mph 1017.2mb 52f 55f
1:04 1.6ft 8s 2 4 mph 1017.7mb 52f 53f
12:04 1.6ft 8s 7 7 mph 1017.8mb 52f 55f
Qua 07/26 11:04 2ft 8s 7 7 mph 1018.6mb 52f 54f
10:04 1.6ft 8s 4 7 mph 1019.3mb 52f 53f
9:04 1.6ft 8s 4 4 mph 1019.6mb 52f 53f
7:04 2ft 6s 4 7 mph 1019.7mb 53f 57f
6:04 2ft 8s 4 4 mph 1019.9mb 53f 57f
5:04 2.5ft 6s 4 4 mph 1020mb 52f 58f
4:04 2ft 8s 4 7 mph 1020.5mb 51f 60f
3:04 2.5ft 8s 4 4 mph 1020.8mb 53f 59f
2:04 2.5ft 6s 4 4 mph 1021.3mb 52f 59f
1:04 2.5ft 8s 4 4 mph 1021.6mb 52f 58f
12:04 2.5ft 8s 4 4 mph 1022.1mb 54f 57f
11:04 2.5ft 8s 4 4 mph 1022.3mb 51f 57f
10:04 2.5ft 8s 2 4 mph 1022.5mb 51f 56f
9:04 2.5ft 8s 2 4 mph 1022.7mb 51f 56f
8:04 2.5ft 8s 2 2 mph 1022.8mb 51f 56f
7:04 2.5ft 8s  -  2 mph 1022.3mb 50f 59f
6:04 2.5ft 11s 2 2 mph 1022.1mb 52f 54f
5:04 2.5ft 8s 2 2 mph 1021.5mb 49f 52f
4:04 2.5ft 8s 4 4 mph 1021.2mb 50f 52f
3:04 2.5ft 8s 7 7 mph 1020.9mb 50f 53f
2:04 3ft 8s 7 7 mph 1020.9mb 50f 53f
1:04 3ft 8s 4 7 mph 1021.3mb 50f 53f
12:04 2.5ft 8s 4 7 mph 1021.3mb 50f 53f
Ter 07/25 11:04 2.5ft 8s 7 7 mph 1021.3mb 50f 54f
10:04 3ft 8s 4 4 mph 1020.7mb 51f 54f
9:04 3ft 8s 4 4 mph 1020.5mb 51f 54f
8:04 3ft 8s 4 7 mph 1020.1mb 50f 55f
7:04 3ft 8s 4 4 mph 1019.7mb 51f 55f
6:04 3ft 8s 4 4 mph 1019.7mb 51f 58f
5:04 3ft 8s 2 2 mph 1019.4mb 51f 59f
4:04 3.5ft 6s 2 4 mph 1019.2mb 51f 58f
3:04 3ft 8s 4 7 mph 1018.7mb 51f 57f
2:04 3.5ft 8s 7 7 mph 1018.4mb 51f 56f
1:04 3ft 8s 9 11 mph 1018mb 51f 57f
12:04 3ft 8s 7 9 mph 1017.5mb 51f 55f
11:04 3.5ft 8s 11 11 mph 1017.2mb 50f 55f
10:04 3.5ft 8s 9 11 mph 1017.4mb 50f 54f
9:04 3.5ft 8s 11 13 mph 1017.6mb 50f 54f
8:04 4.5ft 6s 13 16 mph 1017mb 50f 53f
7:04 3.5ft 8s 13 16 mph 1016.4mb 50f 53f
6:04 3.5ft 5s 13 18 mph 1015.9mb 50f 53f
5:04 4ft 5s 13 16 mph 1014.9mb 50f 53f
4:04 4ft 5s 13 16 mph 1014.2mb 50f 52f
3:04 4.5ft 5s 16 18 mph 1014.1mb 49f 52f
2:04 4ft 5s 18 22 mph 1014.2mb 50f 52f
1:04 4ft 5s 20 25 mph 1013.7mb 50f 52f
12:04 4ft 5s 22 27 mph 1013.8mb 50f 52f
Seg 07/24 11:04 3.5ft 5s 20 22 mph 1014.3mb 51f 52f
10:04 3.5ft 4s 18 22 mph 1015mb 51f 53f
9:04 2.5ft 4s 18 20 mph 1015.5mb 51f 53f
8:04 3ft 8s 20 22 mph 1015.2mb 51f 53f
7:04 2ft 5s 11 13 mph 1016.5mb 52f 53f
6:04 2ft 5s 13 13 mph 1015.6mb 52f 54f
4:04 2.5ft 8s 13 16 mph 1015.2mb 52f 54f
3:04 2ft 8s 9 9 mph 1015.9mb 52f 55f
2:04 2ft 8s 9 11 mph 1015.7mb 52f 55f
1:04 1.6ft 6s 9 11 mph 1015.9mb 53f 55f
12:04 2ft 8s 9 9 mph 1016.4mb 53f 54f
11:04 1.6ft 8s 9 9 mph 1016.8mb 53f 55f
10:04 1.3ft 8s 7 9 mph 1016.7mb 53f 55f
9:04 1.6ft 8s 7 9 mph 1016.3mb 53f 55f
8:04 1.3ft 8s 4 4 mph 1016.4mb 53f 55f
7:04 1.6ft 8s 4 4 mph 1015.8mb 53f 55f
6:04 1.3ft 8s 2 2 mph 1015.9mb 53f 54f
5:04 1.3ft 8s  -  2 mph 1015.4mb 53f 54f
4:04 1.6ft 11s 2 2 mph 1014.5mb 53f 54f
3:04 1.3ft 5s 4 4 mph 1014.3mb 53f 54f
2:04 1.3ft 11s 2 4 mph 1014.4mb 53f 55f
1:04 1.3ft 6s 7 7 mph 1014.1mb 53f 55f
12:04 1.3ft 11s 4 4 mph 1013.7mb 53f 55f
Dom 07/23 11:04 1.6ft 6s 4 4 mph 1013.5mb 54f 56f